| time (UTC) | temp F | wind direction | speed MPH | gust MPH | rain 1hr in | rain 24hr in | rain mn in | humidity % | barometer mb |
| 20260507111010 | 45 | 186 | 0.0 | 3.0 | 0.00 | 0.86 | 0.16 | 94 | 1006.2 |
| 20260507110506 | 45 | 196 | 1.0 | 2.0 | 0.00 | 0.86 | 0.16 | 95 | 1006.4 |
| 20260507110009 | 45 | 285 | 0.0 | 2.0 | 0.00 | 0.86 | 0.16 | 95 | 1005.9 |
| 20260507105502 | 45 | 286 | 0.0 | 2.0 | 0.00 | 0.86 | 0.16 | 96 | 1006.0 |
| 20260507105003 | 45 | 88 | 0.0 | 2.0 | 0.00 | 0.86 | 0.16 | 96 | 1005.8 |
| 20260507104509 | 45 | 216 | 0.0 | 2.0 | 0.00 | 0.86 | 0.16 | 96 | 1006.0 |
| 20260507104004 | 45 | 43 | 0.0 | 2.0 | 0.00 | 0.86 | 0.16 | 96 | 1005.3 |
| 20260507103506 | 45 | 323 | 0.0 | 2.0 | 0.00 | 0.86 | 0.16 | 96 | 1005.8 |
| 20260507103013 | 45 | 277 | 0.0 | 3.0 | 0.00 | 0.86 | 0.16 | 96 | 1005.8 |
| 20260507102506 | 45 | 181 | 0.0 | 2.0 | 0.00 | 0.86 | 0.16 | 96 | 1005.8 |
| 20260507102008 | 45 | 193 | 0.0 | 2.0 | 0.00 | 0.86 | 0.16 | 96 | 1005.7 |
| 20260507101516 | 45 | 5 | 0.0 | 2.0 | 0.00 | 0.86 | 0.16 | 96 | 1005.3 |
| 20260507101008 | 45 | 315 | 0.0 | 0.0 | 0.00 | 0.86 | 0.16 | 96 | 1005.1 |
| 20260507100508 | 45 | 360 | 0.0 | 0.0 | 0.00 | 0.86 | 0.16 | 96 | 1005.1 |
| 20260507100025 | 45 | 360 | 0.0 | 0.0 | 0.00 | 0.86 | 0.16 | 96 | 1005.3 |
| 20260507095510 | 45 | 360 | 0.0 | 0.0 | 0.00 | 0.86 | 0.16 | 95 | 1005.2 |
| 20260507095013 | 45 | 360 | 0.0 | 0.0 | 0.00 | 0.86 | 0.16 | 95 | 1004.9 |
| 20260507094507 | 45 | 360 | 0.0 | 0.0 | 0.00 | 0.86 | 0.16 | 95 | 1005.1 |
| 20260507094002 | 45 | 360 | 0.0 | 0.0 | 0.00 | 0.86 | 0.16 | 96 | 1005.0 |
| 20260507093503 | 45 | 360 | 0.0 | 2.0 | 0.00 | 0.86 | 0.16 | 96 | 1005.1 |
| 20260507093018 | 45 | 360 | 0.0 | 2.0 | 0.00 | 0.86 | 0.16 | 95 | 1005.0 |
| 20260507092504 | 46 | 360 | 0.0 | 2.0 | 0.00 | 0.86 | 0.16 | 95 | 1005.3 |
| 20260507092003 | 46 | 360 | 0.0 | 2.0 | 0.00 | 0.86 | 0.16 | 96 | 1005.2 |
| 20260507091519 | 46 | 9 | 0.0 | 2.0 | 0.00 | 0.86 | 0.16 | 96 | 1005.2 |
| 20260507091011 | 46 | 5 | 0.0 | 2.0 | 0.00 | 0.86 | 0.16 | 96 | 1005.0 |
| 20260507090510 | 46 | 274 | 0.0 | 2.0 | 0.00 | 0.86 | 0.16 | 96 | 1005.5 |
| 20260507090022 | 46 | 20 | 0.0 | 2.0 | 0.00 | 0.86 | 0.16 | 96 | 1005.3 |
| 20260507085508 | 46 | 20 | 0.0 | 2.0 | 0.00 | 0.86 | 0.16 | 96 | 1005.1 |
| 20260507085009 | 46 | 20 | 0.0 | 0.0 | 0.01 | 0.86 | 0.16 | 96 | 1005.1 |
| 20260507084525 | 46 | 20 | 0.0 | 0.0 | 0.01 | 0.86 | 0.16 | 96 | 1005.2 |
| 20260507084008 | 46 | 20 | 0.0 | 0.0 | 0.01 | 0.86 | 0.16 | 96 | 1005.3 |
| 20260507083509 | 47 | 20 | 0.0 | 0.0 | 0.01 | 0.86 | 0.16 | 96 | 1005.4 |
| 20260507083008 | 47 | 20 | 0.0 | 1.0 | 0.01 | 0.86 | 0.16 | 96 | 1005.0 |
| 20260507082503 | 47 | 20 | 0.0 | 2.0 | 0.01 | 0.86 | 0.16 | 96 | 1005.1 |
| 20260507082006 | 47 | 9 | 0.0 | 2.0 | 0.01 | 0.86 | 0.16 | 96 | 1005.1 |
| 20260507081512 | 47 | 9 | 0.0 | 2.0 | 0.01 | 0.86 | 0.16 | 96 | 1005.1 |
| 20260507081004 | 47 | 9 | 0.0 | 2.0 | 0.01 | 0.86 | 0.16 | 96 | 1004.9 |
| 20260507080505 | 47 | 20 | 0.0 | 2.0 | 0.01 | 0.86 | 0.16 | 96 | 1005.0 |
| 20260507080020 | 47 | 344 | 0.0 | 2.0 | 0.01 | 0.86 | 0.16 | 96 | 1005.0 |
| 20260507075507 | 47 | 331 | 0.0 | 2.0 | 0.01 | 0.86 | 0.16 | 96 | 1005.0 |
| 20260507075011 | 47 | 333 | 0.0 | 2.0 | 0.00 | 0.85 | 0.15 | 96 | 1004.9 |
| 20260507074524 | 47 | 55 | 0.0 | 2.0 | 0.00 | 0.85 | 0.15 | 96 | 1004.9 |
| 20260507074007 | 47 | 55 | 0.0 | 2.0 | 0.00 | 0.85 | 0.15 | 96 | 1004.9 |
| 20260507073509 | 47 | 71 | 0.0 | 2.0 | 0.00 | 0.85 | 0.15 | 95 | 1005.0 |
| 20260507073029 | 47 | 13 | 0.0 | 3.0 | 0.00 | 0.85 | 0.15 | 95 | 1004.8 |
| 20260507072510 | 48 | 13 | 0.0 | 3.0 | 0.00 | 0.85 | 0.15 | 95 | 1004.8 |
| 20260507072011 | 48 | 291 | 1.0 | 2.0 | 0.00 | 0.85 | 0.15 | 95 | 1004.8 |
| 20260507071511 | 48 | 18 | 0.0 | 2.0 | 0.00 | 0.85 | 0.15 | 95 | 1004.6 |
| 20260507071005 | 48 | 360 | 0.0 | 2.0 | 0.00 | 0.85 | 0.15 | 95 | 1004.7 |
| 20260507070504 | 48 | 65 | 0.0 | 2.0 | 0.00 | 0.85 | 0.15 | 95 | 1004.6 |
| 20260507070014 | 48 | 360 | 0.0 | 2.0 | 0.00 | 0.85 | 0.15 | 95 | 1004.5 |
| 20260507065505 | 48 | 336 | 0.0 | 2.0 | 0.00 | 0.85 | 0.15 | 96 | 1004.4 |
| 20260507065005 | 48 | 347 | 0.0 | 2.0 | 0.00 | 0.85 | 0.15 | 96 | 1004.1 |
| 20260507064523 | 48 | 340 | 0.0 | 2.0 | 0.00 | 0.85 | 0.15 | 96 | 1004.1 |
| 20260507064008 | 49 | 347 | 0.0 | 2.0 | 0.00 | 0.85 | 0.15 | 95 | 1004.0 |
| 20260507063508 | 49 | 325 | 0.0 | 2.0 | 0.00 | 0.85 | 0.15 | 95 | 1004.2 |
| 20260507063036 | 49 | 23 | 0.0 | 2.0 | 0.00 | 0.85 | 0.15 | 95 | 1004.0 |
| 20260507062509 | 49 | 23 | 0.0 | 2.0 | 0.00 | 0.85 | 0.15 | 95 | 1004.0 |
| 20260507062011 | 49 | 360 | 0.0 | 2.0 | 0.00 | 0.85 | 0.15 | 96 | 1004.0 |
| 20260507061531 | 49 | 319 | 0.0 | 3.0 | 0.00 | 0.85 | 0.15 | 96 | 1003.9 |
| 20260507061009 | 49 | 319 | 0.0 | 3.0 | 0.01 | 0.85 | 0.15 | 95 | 1003.8 |
| 20260507060509 | 49 | 15 | 1.0 | 3.0 | 0.01 | 0.85 | 0.15 | 95 | 1003.5 |
| 20260507060027 | 49 | 19 | 2.0 | 3.0 | 0.01 | 0.85 | 0.15 | 95 | 1003.6 |
| 20260507055504 | 49 | 5 | 1.0 | 3.0 | 0.02 | 0.85 | 0.15 | 95 | 1003.7 |
| 20260507055004 | 50 | 25 | 1.0 | 3.0 | 0.05 | 0.85 | 0.15 | 95 | 1003.7 |
| 20260507054517 | 50 | 15 | 1.0 | 2.0 | 0.07 | 0.85 | 0.15 | 95 | 1003.9 |
| 20260507054005 | 50 | 346 | 1.0 | 4.0 | 0.08 | 0.85 | 0.15 | 95 | 1003.8 |
| 20260507053507 | 50 | 30 | 1.0 | 4.0 | 0.08 | 0.85 | 0.15 | 95 | 1003.7 |
| 20260507053022 | 50 | 5 | 2.0 | 3.0 | 0.09 | 0.85 | 0.15 | 96 | 1003.8 |
| 20260507052509 | 51 | 352 | 2.0 | 4.0 | 0.10 | 0.85 | 0.15 | 96 | 1003.8 |
| 20260507052009 | 51 | 9 | 2.0 | 4.0 | 0.12 | 0.85 | 0.15 | 96 | 1004.2 |
| 20260507051526 | 51 | 333 | 1.0 | 3.0 | 0.13 | 0.85 | 0.15 | 96 | 1004.1 |
| 20260507051009 | 51 | 20 | 1.0 | 3.0 | 0.13 | 0.84 | 0.14 | 96 | 1004.2 |
| 20260507050508 | 51 | 23 | 1.0 | 3.0 | 0.14 | 0.84 | 0.14 | 96 | 1004.1 |
| 20260507050034 | 52 | 5 | 1.0 | 5.0 | 0.14 | 0.84 | 0.14 | 96 | 1003.9 |
| 20260507045510 | 52 | 5 | 2.0 | 5.0 | 0.13 | 0.83 | 0.13 | 96 | 1003.9 |
| 20260507045007 | 52 | 80 | 2.0 | 4.0 | 0.10 | 0.80 | 0.10 | 96 | 1004.2 |
| 20260507044515 | 52 | 161 | 1.0 | 4.0 | 0.09 | 0.78 | 0.08 | 97 | 1004.3 |
| 20260507044008 | 52 | 38 | 1.0 | 4.0 | 0.09 | 0.77 | 0.07 | 97 | 1003.8 |
| 20260507043505 | 52 | 352 | 2.0 | 4.0 | 0.10 | 0.77 | 0.07 | 97 | 1003.5 |
| 20260507043021 | 52 | 32 | 1.0 | 2.0 | 0.09 | 0.76 | 0.06 | 97 | 1003.3 |
| 20260507042506 | 52 | 327 | 0.0 | 6.0 | 0.08 | 0.75 | 0.05 | 97 | 1003.4 |
| 20260507042005 | 52 | 236 | 0.0 | 6.0 | 0.06 | 0.73 | 0.03 | 97 | 1003.5 |
| 20260507041521 | 52 | 159 | 0.0 | 3.0 | 0.05 | 0.72 | 0.02 | 97 | 1003.5 |
| 20260507041010 | 52 | 183 | 0.0 | 3.0 | 0.04 | 0.71 | 0.01 | 97 | 1003.6 |
| 20260507040511 | 52 | 26 | 1.0 | 4.0 | 0.03 | 0.70 | 0.00 | 97 | 1003.7 |
| 20260507040028 | 52 | 269 | 0.0 | 4.0 | 0.04 | 0.70 | 0.00 | 97 | 1003.6 |
| 20260507035513 | 52 | 240 | 0.0 | 4.0 | 0.04 | 0.70 | 0.70 | 97 | 1003.6 |
| 20260507035014 | 52 | 221 | 1.0 | 7.0 | 0.04 | 0.70 | 0.70 | 97 | 1003.6 |
| 20260507034535 | 52 | 271 | 2.0 | 7.0 | 0.03 | 0.69 | 0.69 | 97 | 1003.7 |
| 20260507034013 | 52 | 192 | 2.0 | 5.0 | 0.02 | 0.68 | 0.68 | 96 | 1003.6 |
| 20260507033507 | 52 | 182 | 1.0 | 5.0 | 0.01 | 0.67 | 0.67 | 97 | 1003.5 |
| 20260507033016 | 52 | 233 | 1.0 | 5.0 | 0.01 | 0.67 | 0.67 | 96 | 1003.3 |
| 20260507032504 | 52 | 287 | 3.0 | 7.0 | 0.01 | 0.67 | 0.67 | 96 | 1003.3 |
| 20260507032013 | 53 | 331 | 2.0 | 8.0 | 0.02 | 0.67 | 0.67 | 97 | 1003.2 |
| 20260507031522 | 53 | 260 | 3.0 | 8.0 | 0.02 | 0.67 | 0.67 | 97 | 1003.2 |
| 20260507031007 | 53 | 248 | 2.0 | 8.0 | 0.03 | 0.67 | 0.67 | 97 | 1003.1 |
| 20260507030508 | 53 | 241 | 2.0 | 8.0 | 0.03 | 0.67 | 0.67 | 97 | 1003.1 |
| 20260507030023 | 53 | 92 | 1.0 | 8.0 | 0.02 | 0.66 | 0.66 | 97 | 1003.1 |
| 20260507025509 | 53 | 142 | 3.0 | 8.0 | 0.03 | 0.66 | 0.66 | 97 | 1003.1 |
| 20260507025011 | 52 | 134 | 2.0 | 7.0 | 0.04 | 0.66 | 0.66 | 97 | 1003.2 |
| 20260507024527 | 52 | 245 | 1.0 | 5.0 | 0.04 | 0.66 | 0.66 | 97 | 1003.3 |
| 20260507024015 | 52 | 215 | 2.0 | 5.0 | 0.05 | 0.66 | 0.66 | 97 | 1003.4 |
| 20260507023508 | 52 | 178 | 1.0 | 4.0 | 0.05 | 0.66 | 0.66 | 96 | 1003.4 |
| 20260507023029 | 52 | 182 | 0.0 | 4.0 | 0.05 | 0.66 | 0.66 | 97 | 1003.5 |
| 20260507022507 | 52 | 200 | 1.0 | 3.0 | 0.05 | 0.66 | 0.66 | 96 | 1003.5 |
| 20260507022008 | 52 | 223 | 1.0 | 3.0 | 0.04 | 0.65 | 0.65 | 96 | 1003.7 |
| 20260507021519 | 52 | 180 | 1.0 | 7.0 | 0.05 | 0.65 | 0.65 | 96 | 1003.8 |
| 20260507021005 | 52 | 190 | 0.0 | 7.0 | 0.04 | 0.64 | 0.64 | 96 | 1003.9 |
| 20260507020506 | 52 | 225 | 1.0 | 3.0 | 0.04 | 0.64 | 0.64 | 96 | 1003.9 |
| 20260507020030 | 52 | 193 | 1.0 | 7.0 | 0.04 | 0.64 | 0.64 | 96 | 1003.9 |
| 20260507015506 | 52 | 203 | 1.0 | 7.0 | 0.03 | 0.63 | 0.63 | 96 | 1004.1 |
| 20260507015010 | 52 | 198 | 1.0 | 5.0 | 0.02 | 0.62 | 0.62 | 96 | 1004.1 |
| 20260507014524 | 52 | 161 | 1.0 | 7.0 | 0.02 | 0.62 | 0.62 | 96 | 1004.2 |
| 20260507014012 | 52 | 163 | 1.0 | 7.0 | 0.01 | 0.61 | 0.61 | 96 | 1004.3 |
| 20260507013508 | 52 | 189 | 1.0 | 4.0 | 0.01 | 0.61 | 0.61 | 96 | 1004.3 |
| 20260507013041 | 52 | 171 | 2.0 | 6.0 | 0.01 | 0.61 | 0.61 | 96 | 1004.3 |
| 20260507012508 | 52 | 180 | 2.0 | 7.0 | 0.01 | 0.61 | 0.61 | 96 | 1004.4 |
| 20260507012010 | 52 | 157 | 1.0 | 9.0 | 0.01 | 0.61 | 0.61 | 96 | 1004.4 |
| 20260507011518 | 52 | 204 | 2.0 | 9.0 | 0.00 | 0.60 | 0.60 | 96 | 1004.4 |
| 20260507011007 | 52 | 169 | 2.0 | 4.0 | 0.00 | 0.60 | 0.60 | 96 | 1004.6 |
| 20260507010507 | 52 | 166 | 2.0 | 6.0 | 0.00 | 0.60 | 0.60 | 96 | 1004.6 |
| 20260507010018 | 52 | 217 | 2.0 | 7.0 | 0.00 | 0.60 | 0.60 | 96 | 1004.7 |
| 20260507005506 | 52 | 195 | 1.0 | 8.0 | 0.00 | 0.60 | 0.60 | 96 | 1004.7 |
| 20260507005004 | 52 | 205 | 2.0 | 8.0 | 0.00 | 0.60 | 0.60 | 96 | 1004.8 |
| 20260507004503 | 52 | 171 | 1.0 | 6.0 | 0.00 | 0.60 | 0.60 | 96 | 1004.8 |
| 20260507004004 | 52 | 171 | 2.0 | 8.0 | 0.00 | 0.60 | 0.60 | 96 | 1004.8 |
| 20260507003503 | 52 | 147 | 1.0 | 13.0 | 0.01 | 0.60 | 0.60 | 96 | 1004.9 |
| 20260507003007 | 53 | 264 | 2.0 | 13.0 | 0.01 | 0.60 | 0.60 | 96 | 1004.8 |
| 20260507002506 | 53 | 285 | 3.0 | 11.0 | 0.01 | 0.60 | 0.60 | 96 | 1004.8 |
| 20260507002004 | 53 | 171 | 2.0 | 10.0 | 0.01 | 0.60 | 0.60 | 96 | 1004.8 |
| 20260507001515 | 53 | 175 | 2.0 | 8.0 | 0.01 | 0.60 | 0.60 | 96 | 1004.8 |
| 20260507001012 | 53 | 178 | 2.0 | 7.0 | 0.01 | 0.60 | 0.60 | 96 | 1004.8 |
| 20260507000504 | 53 | 222 | 2.0 | 7.0 | 0.01 | 0.60 | 0.60 | 96 | 1004.8 |
| 20260507000019 | 53 | 178 | 2.0 | 9.0 | 0.01 | 0.60 | 0.60 | 96 | 1004.9 |
| 20260506235511 | 53 | 172 | 2.0 | 9.0 | 0.01 | 0.60 | 0.60 | 96 | 1005.0 |
| 20260506235007 | 53 | 184 | 2.0 | 7.0 | 0.01 | 0.60 | 0.60 | 96 | 1005.0 |
| 20260506234528 | 53 | 182 | 2.0 | 7.0 | 0.01 | 0.60 | 0.60 | 96 | 1005.0 |
| 20260506234003 | 53 | 206 | 1.0 | 6.0 | 0.01 | 0.60 | 0.60 | 96 | 1005.0 |
| 20260506233503 | 53 | 143 | 1.0 | 6.0 | 0.00 | 0.58 | 0.58 | 96 | 1005.1 |
| 20260506233004 | 53 | 182 | 1.0 | 7.0 | 0.00 | 0.58 | 0.58 | 96 | 1005.1 |
| 20260506232502 | 53 | 148 | 2.0 | 7.0 | 0.00 | 0.58 | 0.58 | 96 | 1005.1 |
| 20260506232004 | 53 | 190 | 1.0 | 5.0 | 0.01 | 0.58 | 0.58 | 96 | 1005.1 |
| 20260506231512 | 53 | 118 | 2.0 | 5.0 | 0.01 | 0.58 | 0.58 | 96 | 1005.2 |
| 20260506231002 | 53 | 167 | 1.0 | 5.0 | 0.01 | 0.58 | 0.58 | 96 | 1005.2 |
| 20260506230504 | 53 | 163 | 1.0 | 4.0 | 0.02 | 0.58 | 0.58 | 96 | 1005.3 |
| 20260506230016 | 53 | 188 | 1.0 | 5.0 | 0.02 | 0.58 | 0.58 | 96 | 1005.3 |
| 20260506225508 | 53 | 147 | 2.0 | 7.0 | 0.02 | 0.58 | 0.58 | 96 | 1005.3 |
| 20260506225007 | 53 | 213 | 1.0 | 7.0 | 0.03 | 0.58 | 0.58 | 96 | 1005.3 |
| 20260506224520 | 53 | 164 | 1.0 | 4.0 | 0.05 | 0.58 | 0.58 | 95 | 1005.3 |
| 20260506224008 | 53 | 194 | 1.0 | 8.0 | 0.09 | 0.58 | 0.58 | 95 | 1005.4 |
| 20260506223508 | 54 | 259 | 1.0 | 8.0 | 0.10 | 0.58 | 0.58 | 96 | 1005.4 |
| 20260506223022 | 54 | 216 | 3.0 | 8.0 | 0.12 | 0.58 | 0.58 | 95 | 1005.3 |
| 20260506222506 | 54 | 180 | 2.0 | 10.0 | 0.13 | 0.58 | 0.58 | 95 | 1005.5 |
| 20260506222003 | 54 | 178 | 3.0 | 10.0 | 0.14 | 0.58 | 0.58 | 95 | 1005.5 |
| 20260506221508 | 54 | 171 | 2.0 | 8.0 | 0.16 | 0.58 | 0.58 | 95 | 1005.4 |
| 20260506221004 | 54 | 191 | 2.0 | 6.0 | 0.18 | 0.58 | 0.58 | 95 | 1005.5 |
| 20260506220504 | 54 | 232 | 2.0 | 6.0 | 0.18 | 0.57 | 0.57 | 95 | 1005.6 |
| 20260506220021 | 54 | 214 | 2.0 | 6.0 | 0.19 | 0.57 | 0.57 | 95 | 1005.5 |
| 20260506215504 | 54 | 178 | 1.0 | 8.0 | 0.19 | 0.57 | 0.57 | 95 | 1005.5 |
| 20260506215005 | 54 | 199 | 2.0 | 8.0 | 0.19 | 0.56 | 0.56 | 95 | 1005.6 |
| 20260506214516 | 54 | 195 | 2.0 | 9.0 | 0.18 | 0.54 | 0.54 | 95 | 1005.7 |
| 20260506214007 | 54 | 142 | 1.0 | 10.0 | 0.14 | 0.50 | 0.50 | 95 | 1005.7 |
| 20260506213509 | 54 | 140 | 3.0 | 10.0 | 0.14 | 0.49 | 0.49 | 95 | 1005.9 |
| 20260506213026 | 54 | 200 | 2.0 | 9.0 | 0.15 | 0.47 | 0.47 | 95 | 1005.9 |
| 20260506212510 | 54 | 206 | 2.0 | 9.0 | 0.18 | 0.46 | 0.46 | 95 | 1005.9 |
| 20260506212010 | 54 | 179 | 2.0 | 7.0 | 0.20 | 0.44 | 0.44 | 95 | 1005.9 |
| 20260506211529 | 54 | 186 | 1.0 | 5.0 | 0.21 | 0.42 | 0.42 | 95 | 1006.1 |
| 20260506211003 | 54 | 196 | 1.0 | 3.0 | 0.21 | 0.40 | 0.40 | 95 | 1006.2 |
| 20260506210508 | 54 | 207 | 1.0 | 9.0 | 0.21 | 0.39 | 0.39 | 95 | 1006.1 |
| 20260506210012 | 54 | 193 | 1.0 | 9.0 | 0.21 | 0.38 | 0.38 | 95 | 1005.9 |
| 20260506205505 | 54 | 202 | 1.0 | 8.0 | 0.22 | 0.38 | 0.38 | 95 | 1006.0 |
| 20260506205005 | 54 | 178 | 2.0 | 8.0 | 0.25 | 0.37 | 0.37 | 95 | 1006.1 |
| 20260506204516 | 54 | 249 | 3.0 | 10.0 | 0.27 | 0.36 | 0.36 | 95 | 1006.0 |
| 20260506204005 | 54 | 229 | 1.0 | 10.0 | 0.29 | 0.36 | 0.36 | 94 | 1006.0 |
| 20260506203507 | 54 | 242 | 2.0 | 11.0 | 0.28 | 0.35 | 0.35 | 94 | 1006.2 |
| 20260506203020 | 54 | 209 | 3.0 | 11.0 | 0.25 | 0.32 | 0.32 | 94 | 1006.4 |
| 20260506202513 | 54 | 215 | 4.0 | 9.0 | 0.22 | 0.28 | 0.28 | 94 | 1006.5 |
| 20260506202010 | 54 | 186 | 3.0 | 7.0 | 0.19 | 0.24 | 0.24 | 94 | 1006.7 |
| 20260506201527 | 54 | 165 | 2.0 | 7.0 | 0.17 | 0.21 | 0.21 | 94 | 1006.6 |
| 20260506201013 | 54 | 171 | 1.0 | 6.0 | 0.16 | 0.19 | 0.19 | 94 | 1006.5 |
| 20260506200509 | 54 | 185 | 1.0 | 6.0 | 0.16 | 0.18 | 0.18 | 94 | 1006.5 |
| 20260506200015 | 54 | 195 | 1.0 | 3.0 | 0.15 | 0.17 | 0.17 | 94 | 1006.5 |
| 20260506195503 | 54 | 197 | 0.0 | 3.0 | 0.15 | 0.16 | 0.16 | 93 | 1006.7 |
| 20260506195004 | 54 | 234 | 1.0 | 3.0 | 0.12 | 0.12 | 0.12 | 93 | 1007.0 |
| 20260506194511 | 55 | 180 | 1.0 | 5.0 | 0.09 | 0.09 | 0.09 | 93 | 1007.0 |
| 20260506194006 | 55 | 221 | 2.0 | 5.0 | 0.07 | 0.07 | 0.07 | 92 | 1006.8 |
| 20260506193504 | 55 | 221 | 1.0 | 4.0 | 0.07 | 0.07 | 0.07 | 92 | 1006.5 |
| 20260506193016 | 55 | 238 | 1.0 | 4.0 | 0.07 | 0.07 | 0.07 | 92 | 1006.5 |
| 20260506192507 | 55 | 175 | 1.0 | 8.0 | 0.06 | 0.06 | 0.06 | 91 | 1006.2 |
| 20260506192010 | 55 | 165 | 2.0 | 8.0 | 0.05 | 0.05 | 0.05 | 91 | 1006.3 |
| 20260506191522 | 55 | 181 | 1.0 | 3.0 | 0.04 | 0.04 | 0.04 | 90 | 1006.6 |
| 20260506191005 | 55 | 224 | 1.0 | 5.0 | 0.03 | 0.03 | 0.03 | 89 | 1006.6 |
| 20260506190507 | 56 | 188 | 2.0 | 6.0 | 0.02 | 0.02 | 0.02 | 88 | 1006.6 |
| 20260506190026 | 56 | 207 | 1.0 | 6.0 | 0.02 | 0.02 | 0.02 | 86 | 1006.7 |
| 20260506185512 | 57 | 179 | 1.0 | 6.0 | 0.01 | 0.01 | 0.01 | 85 | 1006.7 |
| 20260506185011 | 57 | 219 | 2.0 | 6.0 | 0.00 | 0.00 | 0.00 | 84 | 1006.5 |
| 20260506184509 | 58 | 168 | 2.0 | 9.0 | 0.00 | 0.00 | 0.00 | 81 | 1006.7 |
| 20260506184008 | 59 | 160 | 3.0 | 12.0 | 0.00 | 0.00 | 0.00 | 78 | 1006.7 |
| 20260506183505 | 59 | 156 | 4.0 | 12.0 | 0.00 | 0.00 | 0.00 | 77 | 1006.5 |
| 20260506183015 | 60 | 190 | 3.0 | 9.0 | 0.00 | 0.00 | 0.00 | 76 | 1006.4 |
| 20260506182504 | 60 | 252 | 4.0 | 8.0 | 0.00 | 0.00 | 0.00 | 75 | 1006.4 |
| 20260506182009 | 61 | 194 | 2.0 | 8.0 | 0.00 | 0.00 | 0.00 | 75 | 1006.5 |
| 20260506181523 | 61 | 157 | 3.0 | 8.0 | 0.00 | 0.00 | 0.00 | 77 | 1006.5 |
| 20260506181010 | 61 | 192 | 3.0 | 9.0 | 0.00 | 0.00 | 0.00 | 76 | 1006.6 |
| 20260506180508 | 61 | 162 | 3.0 | 9.0 | 0.00 | 0.00 | 0.00 | 76 | 1006.6 |
| 20260506180027 | 61 | 168 | 4.0 | 8.0 | 0.00 | 0.00 | 0.00 | 76 | 1006.7 |
| 20260506175509 | 61 | 225 | 2.0 | 8.0 | 0.00 | 0.00 | 0.00 | 76 | 1006.9 |
| 20260506175009 | 61 | 172 | 1.0 | 7.0 | 0.00 | 0.00 | 0.00 | 77 | 1006.9 |
| 20260506174528 | 61 | 173 | 4.0 | 7.0 | 0.00 | 0.00 | 0.00 | 76 | 1006.9 |
| 20260506174007 | 61 | 190 | 2.0 | 5.0 | 0.00 | 0.00 | 0.00 | 76 | 1007.1 |
| 20260506173504 | 61 | 133 | 2.0 | 8.0 | 0.00 | 0.00 | 0.00 | 76 | 1007.1 |
| 20260506173015 | 61 | 178 | 3.0 | 10.0 | 0.00 | 0.00 | 0.00 | 76 | 1007.3 |
| 20260506172503 | 61 | 271 | 3.0 | 11.0 | 0.00 | 0.00 | 0.00 | 76 | 1007.2 |
| 20260506172008 | 62 | 188 | 3.0 | 11.0 | 0.00 | 0.00 | 0.00 | 75 | 1007.4 |
| 20260506171518 | 62 | 192 | 2.0 | 7.0 | 0.00 | 0.00 | 0.00 | 76 | 1007.5 |
| 20260506171008 | 62 | 190 | 2.0 | 8.0 | 0.00 | 0.00 | 0.00 | 76 | 1007.5 |
| 20260506170509 | 62 | 160 | 3.0 | 8.0 | 0.00 | 0.00 | 0.00 | 76 | 1007.6 |
| 20260506170020 | 62 | 184 | 1.0 | 8.0 | 0.00 | 0.00 | 0.00 | 75 | 1007.7 |
| 20260506165509 | 62 | 221 | 3.0 | 7.0 | 0.00 | 0.00 | 0.00 | 76 | 1007.8 |
| 20260506165010 | 62 | 191 | 1.0 | 6.0 | 0.00 | 0.00 | 0.00 | 76 | 1007.9 |
| 20260506164525 | 62 | 170 | 2.0 | 6.0 | 0.00 | 0.00 | 0.00 | 76 | 1007.9 |
| 20260506164011 | 61 | 163 | 1.0 | 8.0 | 0.00 | 0.00 | 0.00 | 77 | 1008.0 |
| 20260506163513 | 61 | 174 | 2.0 | 8.0 | 0.00 | 0.00 | 0.00 | 77 | 1008.0 |
| 20260506163029 | 62 | 256 | 2.0 | 7.0 | 0.00 | 0.00 | 0.00 | 76 | 1008.1 |
| 20260506162508 | 61 | 190 | 3.0 | 7.0 | 0.00 | 0.00 | 0.00 | 76 | 1008.2 |
| 20260506162005 | 61 | 179 | 2.0 | 8.0 | 0.00 | 0.00 | 0.00 | 76 | 1008.3 |
| 20260506161515 | 61 | 191 | 1.0 | 8.0 | 0.00 | 0.00 | 0.00 | 76 | 1008.3 |
| 20260506161007 | 62 | 169 | 2.0 | 8.0 | 0.00 | 0.00 | 0.00 | 76 | 1008.3 |
| 20260506160508 | 61 | 198 | 2.0 | 11.0 | 0.00 | 0.00 | 0.00 | 76 | 1008.3 |
| 20260506160023 | 61 | 204 | 3.0 | 11.0 | 0.00 | 0.00 | 0.00 | 76 | 1008.5 |
| 20260506155511 | 62 | 143 | 2.0 | 8.0 | 0.00 | 0.00 | 0.00 | 76 | 1008.6 |
| 20260506155007 | 62 | 298 | 2.0 | 10.0 | 0.00 | 0.00 | 0.00 | 76 | 1008.6 |
| 20260506154524 | 62 | 192 | 3.0 | 10.0 | 0.00 | 0.00 | 0.00 | 76 | 1008.6 |
| 20260506154008 | 62 | 183 | 3.0 | 9.0 | 0.00 | 0.00 | 0.00 | 75 | 1008.6 |
| 20260506153508 | 62 | 237 | 2.0 | 6.0 | 0.00 | 0.00 | 0.00 | 75 | 1008.6 |
| 20260506153025 | 62 | 170 | 2.0 | 6.0 | 0.00 | 0.00 | 0.00 | 76 | 1008.6 |
| 20260506152511 | 62 | 215 | 2.0 | 6.0 | 0.00 | 0.00 | 0.00 | 76 | 1008.6 |
| 20260506152012 | 62 | 185 | 2.0 | 5.0 | 0.00 | 0.00 | 0.00 | 75 | 1008.6 |
| 20260506151529 | 62 | 209 | 2.0 | 6.0 | 0.00 | 0.00 | 0.00 | 75 | 1008.5 |
| 20260506151007 | 62 | 225 | 3.0 | 7.0 | 0.00 | 0.00 | 0.00 | 76 | 1008.3 |
| 20260506150505 | 62 | 232 | 2.0 | 8.0 | 0.00 | 0.00 | 0.00 | 77 | 1008.2 |
| 20260506150018 | 62 | 176 | 2.0 | 8.0 | 0.00 | 0.00 | 0.00 | 76 | 1008.0 |
| 20260506145508 | 62 | 167 | 2.0 | 8.0 | 0.00 | 0.00 | 0.00 | 76 | 1007.9 |
| 20260506145007 | 62 | 151 | 2.0 | 8.0 | 0.00 | 0.00 | 0.00 | 76 | 1008.0 |
| 20260506144527 | 62 | 346 | 2.0 | 7.0 | 0.00 | 0.00 | 0.00 | 76 | 1008.1 |
| 20260506144010 | 61 | 140 | 1.0 | 7.0 | 0.00 | 0.00 | 0.00 | 76 | 1008.2 |
| 20260506143510 | 61 | 141 | 2.0 | 6.0 | 0.00 | 0.00 | 0.00 | 77 | 1008.3 |
| 20260506143033 | 61 | 147 | 1.0 | 11.0 | 0.00 | 0.00 | 0.00 | 76 | 1008.4 |
| 20260506142513 | 61 | 169 | 3.0 | 11.0 | 0.00 | 0.00 | 0.00 | 77 | 1008.5 |
| 20260506142010 | 61 | 172 | 1.0 | 6.0 | 0.00 | 0.00 | 0.00 | 76 | 1008.8 |
| 20260506141528 | 61 | 155 | 1.0 | 6.0 | 0.00 | 0.00 | 0.00 | 77 | 1008.9 |
| 20260506141011 | 61 | 163 | 3.0 | 4.0 | 0.00 | 0.00 | 0.00 | 76 | 1009.0 |
| 20260506140512 | 61 | 183 | 1.0 | 8.0 | 0.00 | 0.00 | 0.00 | 76 | 1008.9 |
| 20260506140028 | 61 | 149 | 2.0 | 8.0 | 0.00 | 0.00 | 0.00 | 76 | 1008.9 |
| 20260506135506 | 61 | 204 | 1.0 | 3.0 | 0.00 | 0.00 | 0.00 | 77 | 1008.9 |
| 20260506135006 | 61 | 196 | 1.0 | 5.0 | 0.00 | 0.00 | 0.00 | 77 | 1008.9 |
| 20260506134520 | 60 | 175 | 2.0 | 5.0 | 0.00 | 0.00 | 0.00 | 77 | 1008.8 |
| 20260506134012 | 60 | 160 | 1.0 | 2.0 | 0.00 | 0.00 | 0.00 | 77 | 1008.6 |
| 20260506133509 | 60 | 205 | 1.0 | 5.0 | 0.00 | 0.00 | 0.00 | 78 | 1008.6 |
| 20260506133024 | 60 | 165 | 0.0 | 5.0 | 0.00 | 0.00 | 0.00 | 78 | 1008.3 |
| 20260506132512 | 60 | 202 | 1.0 | 9.0 | 0.00 | 0.00 | 0.00 | 78 | 1008.4 |
| 20260506132015 | 60 | 177 | 4.0 | 9.0 | 0.00 | 0.00 | 0.00 | 77 | 1008.6 |
| 20260506131506 | 59 | 260 | 2.0 | 6.0 | 0.00 | 0.00 | 0.00 | 78 | 1008.5 |
| 20260506131004 | 59 | 149 | 1.0 | 5.0 | 0.00 | 0.00 | 0.00 | 78 | 1008.5 |
| 20260506130504 | 59 | 169 | 0.0 | 4.0 | 0.00 | 0.00 | 0.00 | 79 | 1008.7 |
| 20260506130006 | 59 | 163 | 1.0 | 5.0 | 0.00 | 0.00 | 0.00 | 79 | 1008.6 |
| 20260506125504 | 58 | 160 | 2.0 | 6.0 | 0.00 | 0.00 | 0.00 | 79 | 1008.7 |
| 20260506125004 | 58 | 192 | 2.0 | 6.0 | 0.00 | 0.00 | 0.00 | 80 | 1008.6 |
| 20260506124508 | 57 | 171 | 2.0 | 5.0 | 0.00 | 0.00 | 0.00 | 80 | 1008.8 |
| 20260506124004 | 57 | 205 | 0.0 | 5.0 | 0.00 | 0.00 | 0.00 | 82 | 1008.9 |
| 20260506123504 | 57 | 179 | 2.0 | 5.0 | 0.00 | 0.00 | 0.00 | 82 | 1008.8 |
| 20260506123006 | 56 | 194 | 0.0 | 4.0 | 0.00 | 0.00 | 0.00 | 82 | 1008.9 |
| 20260506122504 | 56 | 159 | 1.0 | 4.0 | 0.00 | 0.00 | 0.00 | 82 | 1009.0 |
| 20260506122004 | 56 | 221 | 0.0 | 2.0 | 0.00 | 0.00 | 0.00 | 82 | 1008.8 |
| 20260506121506 | 56 | 177 | 0.0 | 5.0 | 0.00 | 0.00 | 0.00 | 82 | 1008.9 |
| 20260506121003 | 56 | 159 | 2.0 | 5.0 | 0.00 | 0.00 | 0.00 | 82 | 1008.8 |
| 20260506120504 | 55 | 180 | 0.0 | 5.0 | 0.00 | 0.00 | 0.00 | 83 | 1009.2 |
| 20260506120009 | 55 | 167 | 1.0 | 5.0 | 0.00 | 0.00 | 0.00 | 82 | 1009.1 |
| 20260506115505 | 55 | 213 | 1.0 | 3.0 | 0.00 | 0.00 | 0.00 | 82 | 1009.6 |
| 20260506115005 | 55 | 148 | 0.0 | 3.0 | 0.00 | 0.00 | 0.00 | 82 | 1009.5 |
| 20260506114510 | 55 | 171 | 1.0 | 4.0 | 0.00 | 0.00 | 0.00 | 83 | 1009.5 |
| 20260506114005 | 55 | 232 | 1.0 | 4.0 | 0.00 | 0.00 | 0.00 | 82 | 1009.6 |
| 20260506113504 | 55 | 213 | 1.0 | 3.0 | 0.00 | 0.00 | 0.00 | 83 | 1009.7 |
| 20260506113008 | 55 | 217 | 0.0 | 5.0 | 0.00 | 0.00 | 0.00 | 83 | 1009.6 |
| 20260506112506 | 54 | 177 | 1.0 | 5.0 | 0.00 | 0.00 | 0.00 | 83 | 1009.6 |
| 20260506112006 | 54 | 200 | 0.0 | 5.0 | 0.00 | 0.00 | 0.00 | 84 | 1009.7 |
| 20260506111505 | 54 | 188 | 0.0 | 5.0 | 0.00 | 0.00 | 0.00 | 84 | 1009.5 |